Time;durP1;ratioP1;P1;durP2;ratioP2;P2;SDS_P1;SDS_P2;PMS_P1;PMS_P2;Temp;Humidity;BMP_temperature;BMP_pressure;BME280_temperature;BME280_humidity;BME280_pressure;Samples;Min_cycle;Max_cycle;Signal;HPM_P1;HPM_P2
2021/11/16 00:03:14;;;;;;;0.20;0.10;;;12.50;99.90;;;;;;20492847;28;20248;-70
2021/11/16 00:13:19;;;;;;;0.20;0.10;;;12.30;99.90;;;;;;20493119;28;20232;-70
2021/11/16 00:23:24;;;;;;;0.20;0.10;;;12.40;99.90;;;;;;20492983;28;20283;-71
2021/11/16 00:33:31;;;;;;;0.20;0.10;;;12.20;99.90;;;;;;20484575;28;20243;-72
2021/11/16 00:43:35;;;;;;;0.20;0.10;;;12.40;99.90;;;;;;20478243;28;20207;-72
2021/11/16 00:53:40;;;;;;;0.20;0.10;;;12.10;99.90;;;;;;20450906;28;20230;-71
2021/11/16 01:03:44;;;;;;;0.20;0.10;;;12.10;99.90;;;;;;20515249;23;20322;-76
2021/11/16 01:13:49;;;;;;;0.20;0.07;;;12.10;99.90;;;;;;20504886;28;20275;-78
2021/11/16 01:23:52;;;;;;;0.20;0.10;;;12.40;99.90;;;;;;20570336;28;20553;-76
2021/11/16 01:34:00;;;;;;;0.20;0.10;;;12.30;99.90;;;;;;20524174;28;20252;-76
2021/11/16 01:44:04;;;;;;;0.20;0.10;;;12.20;99.90;;;;;;20470680;28;20220;-75
2021/11/16 01:54:09;;;;;;;0.20;0.10;;;11.80;99.90;;;;;;20503735;28;20735;-75
2021/11/16 02:04:14;;;;;;;0.20;0.10;;;11.30;99.90;;;;;;20556779;23;20585;-72
2021/11/16 02:14:19;;;;;;;0.20;0.10;;;11.00;99.90;;;;;;20583013;28;20231;-73
2021/11/16 02:24:24;;;;;;;0.20;0.10;;;11.00;99.90;;;;;;20581939;28;20200;-73
2021/11/16 02:34:28;;;;;;;0.20;0.10;;;11.30;99.90;;;;;;20579901;28;20228;-72
2021/11/16 02:44:33;;;;;;;0.20;0.20;;;11.00;99.90;;;;;;20580675;28;20200;-72
2021/11/16 02:54:36;;;;;;;0.20;0.10;;;10.90;99.90;;;;;;20579580;28;20243;-72
2021/11/16 03:04:45;;;;;;;0.20;0.10;;;11.00;99.90;;;;;;20545992;28;20228;-72
2021/11/16 03:14:50;;;;;;;0.20;0.10;;;11.20;99.90;;;;;;20577854;28;20719;-71
2021/11/16 03:24:58;;;;;;;0.20;0.10;;;11.30;99.90;;;;;;20576572;28;20725;-72
2021/11/16 03:35:04;;;;;;;0.20;0.10;;;11.50;99.90;;;;;;20576712;28;20231;-70
2021/11/16 03:45:10;;;;;;;0.20;0.10;;;11.40;99.90;;;;;;20575766;28;20214;-71
2021/11/16 03:55:14;;;;;;;0.20;0.10;;;11.20;99.90;;;;;;20575736;28;20862;-71
2021/11/16 04:05:20;;;;;;;0.20;0.10;;;11.50;99.90;;;;;;20580639;28;20232;-71
2021/11/16 04:15:25;;;;;;;0.20;0.10;;;11.10;99.90;;;;;;20595250;28;20227;-72
2021/11/16 04:25:32;;;;;;;0.20;0.10;;;11.80;99.90;;;;;;20630677;28;20194;-72
2021/11/16 04:35:36;;;;;;;0.20;0.10;;;11.70;99.90;;;;;;20593369;28;20220;-72
2021/11/16 04:45:42;;;;;;;3.00;1.53;;;11.00;99.90;;;;;;20590407;28;20290;-73
2021/11/16 04:55:52;;;;;;;0.20;0.10;;;10.70;99.90;;;;;;20589530;28;20279;-71
2021/11/16 05:05:57;;;;;;;0.20;0.10;;;10.70;99.90;;;;;;20599413;23;20271;-75
2021/11/16 05:16:00;;;;;;;0.20;0.10;;;11.00;99.90;;;;;;20565465;28;20645;-77
2021/11/16 05:26:05;;;;;;;0.20;0.10;;;10.90;99.90;;;;;;20566829;28;20630;-75
2021/11/16 05:36:11;;;;;;;0.20;0.10;;;10.70;99.90;;;;;;20567854;28;20234;-75
2021/11/16 05:46:20;;;;;;;0.20;0.10;;;11.20;99.90;;;;;;20583718;28;20279;-76
2021/11/16 05:56:25;;;;;;;0.20;0.10;;;11.30;99.90;;;;;;20583029;28;20319;-74
2021/11/16 06:06:33;;;;;;;0.20;0.10;;;11.30;99.90;;;;;;20500972;28;20635;-75
2021/11/16 06:16:36;;;;;;;0.20;0.10;;;11.20;99.90;;;;;;20548830;28;20262;-76
2021/11/16 06:26:41;;;;;;;0.20;0.10;;;11.20;99.90;;;;;;20580271;28;20269;-74
2021/11/16 06:36:47;;;;;;;0.20;0.10;;;11.50;99.90;;;;;;20579463;28;20220;-77
2021/11/16 06:46:55;;;;;;;0.20;0.10;;;11.50;99.90;;;;;;20560923;28;20565;-74
2021/11/16 06:56:59;;;;;;;0.20;0.10;;;11.60;99.90;;;;;;20577001;28;20256;-75
2021/11/16 07:07:04;;;;;;;0.67;0.67;;;11.60;99.90;;;;;;20572916;28;20239;-75
2021/11/16 07:17:14;;;;;;;0.20;0.20;;;12.00;99.90;;;;;;20573068;28;20323;-74
2021/11/16 07:27:21;;;;;;;0.20;0.10;;;12.10;99.90;;;;;;20573747;28;20652;-75
2021/11/16 07:37:28;;;;;;;0.20;0.10;;;11.90;99.90;;;;;;20576261;28;20250;-79
2021/11/16 07:47:48;;;;;;;0.20;0.10;;;11.40;99.90;;;;;;20576759;28;20214;-78
2021/11/16 07:57:53;;;;;;;0.20;0.10;;;10.90;99.90;;;;;;20575457;28;20234;-77
2021/11/16 08:08:20;;;;;;;0.20;0.10;;;10.90;99.90;;;;;;20574713;28;20284;-77
2021/11/16 08:18:23;;;;;;;0.20;0.10;;;10.60;99.90;;;;;;20572036;28;20228;-76
2021/11/16 08:28:29;;;;;;;0.20;0.10;;;10.40;99.90;;;;;;20573221;28;20721;-79
2021/11/16 08:38:34;;;;;;;0.20;0.10;;;10.60;99.90;;;;;;20543048;28;20224;-81
2021/11/16 08:48:47;;;;;;;1.70;1.53;;;10.40;99.90;;;;;;20573500;28;20283;-75
2021/11/16 08:58:50;;;;;;;0.20;0.10;;;10.10;99.90;;;;;;20586642;28;20229;-75
2021/11/16 09:09:05;;;;;;;0.20;0.10;;;9.90;99.90;;;;;;20590166;28;20315;-77
2021/11/16 09:20:00;;;;;;;0.20;0.10;;;10.20;99.90;;;;;;20584554;28;20516;-74
2021/11/16 09:30:34;;;;;;;0.20;0.10;;;10.30;99.90;;;;;;20525982;28;20200;-68
2021/11/16 09:40:38;;;;;;;0.20;0.10;;;10.50;99.90;;;;;;20564832;28;20214;-68
2021/11/16 09:50:43;;;;;;;0.20;0.10;;;10.60;99.90;;;;;;20579418;28;20243;-69
2021/11/16 10:00:48;;;;;;;0.20;0.10;;;10.60;99.90;;;;;;20562126;28;20252;-69
2021/11/16 10:10:55;;;;;;;0.20;0.10;;;10.50;99.90;;;;;;20578235;28;20283;-69
2021/11/16 10:20:59;;;;;;;0.20;0.00;;;10.80;99.90;;;;;;20560442;28;20685;-69
2021/11/16 10:31:05;;;;;;;0.20;0.00;;;11.50;99.90;;;;;;20577279;28;20231;-69
2021/11/16 10:41:12;;;;;;;0.20;0.10;;;11.50;99.90;;;;;;20578654;28;20208;-68
2021/11/16 10:51:19;;;;;;;0.20;0.10;;;12.00;99.90;;;;;;20572235;28;20635;-67
2021/11/16 11:01:25;;;;;;;0.20;0.10;;;12.70;99.90;;;;;;20571797;28;20212;-67
2021/11/16 11:11:33;;;;;;;0.20;0.00;;;12.80;99.90;;;;;;20598249;28;20559;-67
2021/11/16 11:21:46;;;;;;;0.20;0.00;;;12.60;99.90;;;;;;20607624;28;20227;-71
2021/11/16 11:31:57;;;;;;;0.33;0.27;;;12.50;99.90;;;;;;20550704;28;20231;-69
2021/11/16 11:42:02;;;;;;;0.20;0.10;;;12.90;99.90;;;;;;20572763;28;20219;-66
2021/11/16 11:52:07;;;;;;;0.20;0.10;;;13.00;99.90;;;;;;20572938;28;20228;-66
2021/11/16 12:02:17;;;;;;;0.20;0.10;;;12.80;99.90;;;;;;20573530;28;20236;-65
2021/11/16 12:12:23;;;;;;;0.60;0.60;;;12.90;99.90;;;;;;20555038;28;20231;-68
2021/11/16 12:22:30;;;;;;;0.20;0.10;;;13.30;99.90;;;;;;20575011;28;20724;-70
2021/11/16 12:32:37;;;;;;;0.60;0.60;;;13.50;99.90;;;;;;20591304;28;20232;-68
2021/11/16 12:43:11;;;;;;;0.20;0.07;;;13.80;99.90;;;;;;20587156;28;20611;-68
2021/11/16 12:53:17;;;;;;;0.20;0.10;;;14.00;99.90;;;;;;20585936;28;20227;-67
2021/11/16 13:03:55;;;;;;;0.20;0.00;;;14.20;99.90;;;;;;20602347;28;20347;-66
2021/11/16 13:14:11;;;;;;;0.20;0.07;;;15.00;99.90;;;;;;20622706;28;20231;-67
2021/11/16 13:24:16;;;;;;;1.90;1.33;;;15.30;99.90;;;;;;20601602;28;20581;-65
2021/11/16 13:34:31;;;;;;;0.20;0.00;;;14.80;99.90;;;;;;20567928;28;20220;-67
2021/11/16 13:44:38;;;;;;;0.20;0.10;;;16.70;99.90;;;;;;20581085;28;20187;-68
2021/11/16 13:54:46;;;;;;;0.20;0.00;;;18.00;99.90;;;;;;20613052;28;20338;-68
2021/11/16 14:04:58;;;;;;;0.20;0.10;;;19.00;99.90;;;;;;20620532;28;20223;-67
2021/11/16 14:15:06;;;;;;;0.20;0.00;;;19.10;99.90;;;;;;20585664;28;20254;-67
2021/11/16 14:25:16;;;;;;;0.20;0.10;;;19.70;99.90;;;;;;20574966;28;20231;-69
2021/11/16 14:35:23;;;;;;;0.20;0.10;;;18.10;99.90;;;;;;20574608;28;20316;-67
2021/11/16 14:45:31;;;;;;;0.20;0.10;;;16.90;99.90;;;;;;20554963;28;20204;-66
2021/11/16 14:55:36;;;;;;;0.20;0.00;;;16.80;99.90;;;;;;20607102;28;20220;-67
2021/11/16 15:05:43;;;;;;;0.20;0.03;;;16.30;99.90;;;;;;20539958;28;20224;-66
2021/11/16 15:15:49;;;;;;;0.20;0.10;;;15.80;99.90;;;;;;20512939;28;20704;-66
2021/11/16 15:25:55;;;;;;;0.20;0.10;;;15.70;99.90;;;;;;20552437;28;20189;-66
2021/11/16 15:36:02;;;;;;;0.20;0.10;;;15.40;99.90;;;;;;20569418;28;20316;-66
2021/11/16 15:46:11;;;;;;;0.20;0.00;;;15.00;99.90;;;;;;20598109;28;20511;-66
2021/11/16 16:06:40;;;;;;;0.20;0.10;;;14.30;99.90;;;;;;20595205;28;20258;-67
2021/11/16 16:16:52;;;;;;;0.20;0.10;;;14.20;99.90;;;;;;20577539;28;20354;-70
2021/11/16 16:26:56;;;;;;;0.20;0.00;;;14.00;99.90;;;;;;20564832;28;20524;-67
2021/11/16 16:37:01;;;;;;;0.20;0.10;;;13.80;99.90;;;;;;20585131;28;20278;-68
2021/11/16 16:47:05;;;;;;;0.20;0.10;;;13.70;99.90;;;;;;20584849;28;20541;-68
2021/11/16 16:57:14;;;;;;;0.20;0.10;;;13.50;99.90;;;;;;20554834;28;20239;-68
2021/11/16 17:07:19;;;;;;;0.20;0.10;;;13.20;99.90;;;;;;20519979;28;20777;-68
2021/11/16 17:17:27;;;;;;;0.20;0.10;;;13.30;99.90;;;;;;20572374;28;20326;-68
2021/11/16 17:27:31;;;;;;;0.20;0.10;;;13.30;99.90;;;;;;20579846;28;20230;-68
2021/11/16 17:37:37;;;;;;;0.20;0.10;;;13.30;99.90;;;;;;20580146;28;20315;-68
2021/11/16 17:47:41;;;;;;;2.13;2.03;;;13.10;99.90;;;;;;20561922;28;20201;-68
2021/11/16 17:57:47;;;;;;;2.00;1.90;;;13.10;99.90;;;;;;20579009;28;20279;-69
2021/11/16 18:08:01;;;;;;;0.20;0.00;;;13.10;99.90;;;;;;20578043;28;20705;-69
2021/11/16 18:18:07;;;;;;;0.20;0.00;;;12.90;99.90;;;;;;20579245;28;20230;-68
2021/11/16 18:28:13;;;;;;;0.20;0.10;;;12.90;99.90;;;;;;20575556;28;20203;-68
2021/11/16 18:38:22;;;;;;;0.20;0.10;;;13.00;99.90;;;;;;20515061;28;20235;-67
2021/11/16 18:48:30;;;;;;;0.20;0.10;;;13.00;99.90;;;;;;20515856;28;20192;-67
2021/11/16 18:58:35;;;;;;;0.20;0.03;;;13.30;99.90;;;;;;20573419;28;20234;-68
2021/11/16 19:08:53;;;;;;;0.20;0.00;;;13.50;99.90;;;;;;20573051;28;20242;-67
2021/11/16 19:18:58;;;;;;;0.20;0.10;;;13.50;99.90;;;;;;20571345;28;20237;-68
2021/11/16 19:29:02;;;;;;;0.40;0.40;;;13.60;99.90;;;;;;20572436;28;20291;-66
2021/11/16 19:39:24;;;;;;;0.30;0.30;;;13.60;99.90;;;;;;21067758;27;20568;-68
2021/11/16 19:49:29;;;;;;;0.20;0.10;;;13.40;99.90;;;;;;21055170;28;20215;-67
2021/11/16 19:59:35;;;;;;;0.20;0.00;;;13.00;99.90;;;;;;21051448;28;20219;-68
2021/11/16 20:09:39;;;;;;;0.20;0.10;;;12.60;99.90;;;;;;21042567;28;20203;-67
2021/11/16 20:19:47;;;;;;;0.20;0.10;;;12.70;99.90;;;;;;21050303;28;20199;-69
2021/11/16 20:29:55;;;;;;;0.20;0.10;;;13.00;99.90;;;;;;21049565;28;20695;-68
2021/11/16 20:40:07;;;;;;;0.20;0.10;;;13.10;99.90;;;;;;21048527;28;20654;-67
2021/11/16 21:00:33;;;;;;;0.20;0.10;;;12.90;99.90;;;;;;20993660;28;20196;-67
2021/11/16 21:10:38;;;;;;;0.20;0.10;;;12.50;99.90;;;;;;20988381;28;20219;-70
2021/11/16 21:20:43;;;;;;;0.20;0.10;;;12.50;99.90;;;;;;20989863;28;20200;-69
2021/11/16 21:30:49;;;;;;;0.20;0.10;;;12.60;99.90;;;;;;20987566;28;20637;-70
2021/11/16 21:40:55;;;;;;;0.20;0.10;;;12.40;99.90;;;;;;20986817;28;20279;-70
2021/11/16 22:01:51;;;;;;;0.20;0.10;;;12.20;99.90;;;;;;22184683;23;20238;-72
2021/11/16 22:11:56;;;;;;;0.20;0.10;;;12.30;99.90;;;;;;20738626;28;20602;-72
2021/11/16 22:22:01;;;;;;;0.20;0.10;;;12.50;99.90;;;;;;20693781;28;20215;-74
2021/11/16 22:32:09;;;;;;;0.20;0.10;;;12.20;99.90;;;;;;20699269;28;20293;-77
2021/11/16 22:42:18;;;;;;;0.20;0.10;;;12.00;99.90;;;;;;20699779;28;20202;-75
2021/11/16 22:52:21;;;;;;;0.20;0.10;;;12.00;99.90;;;;;;20677386;28;20230;-74
